createdAt,value
2018-08-27T00:01:22.750Z,2.50
2018-08-27T00:03:50.920Z,1.90
2018-08-27T00:06:19.318Z,2.30
2018-08-27T00:08:47.412Z,2.43
2018-08-27T00:11:15.608Z,2.40
2018-08-27T00:13:43.652Z,2.10
2018-08-27T00:16:11.780Z,2.60
2018-08-27T00:18:39.956Z,2.50
2018-08-27T00:21:08.028Z,2.17
2018-08-27T00:23:36.106Z,2.10
2018-08-27T00:26:04.164Z,2.23
2018-08-27T00:28:32.233Z,2.77
2018-08-27T00:31:00.292Z,2.47
2018-08-27T00:33:28.341Z,2.00
2018-08-27T00:35:56.409Z,2.53
2018-08-27T00:38:24.488Z,2.33
2018-08-27T00:40:52.668Z,2.40
2018-08-27T00:43:20.805Z,2.20
2018-08-27T00:45:48.902Z,2.60
2018-08-27T00:48:17.081Z,2.50
2018-08-27T00:50:45.133Z,2.57
2018-08-27T00:53:13.273Z,3.00
2018-08-27T00:55:41.317Z,2.60
2018-08-27T00:58:09.385Z,2.03
2018-08-27T01:00:37.434Z,2.30
2018-08-27T01:03:05.837Z,2.20
2018-08-27T01:05:33.960Z,4.13
2018-08-27T01:08:02.037Z,2.20
2018-08-27T01:10:30.224Z,2.23
2018-08-27T01:12:58.484Z,2.43
2018-08-27T01:15:26.725Z,2.17
2018-08-27T01:17:54.792Z,2.10
2018-08-27T01:20:22.876Z,2.67
2018-08-27T01:22:50.923Z,2.50
2018-08-27T01:25:19.048Z,2.60
2018-08-27T01:27:47.125Z,2.17
2018-08-27T01:30:15.225Z,2.03
2018-08-27T01:32:43.358Z,2.40
2018-08-27T01:35:11.410Z,2.40
2018-08-27T01:37:39.634Z,2.60
2018-08-27T01:40:07.716Z,2.43
2018-08-27T01:42:35.985Z,2.53
2018-08-27T01:45:04.156Z,2.53
2018-08-27T01:47:32.213Z,2.20
2018-08-27T01:50:00.405Z,2.40
2018-08-27T01:52:28.483Z,3.00
2018-08-27T01:54:56.651Z,2.93
2018-08-27T01:57:24.697Z,2.50
2018-08-27T01:59:52.753Z,2.20
2018-08-27T02:02:20.840Z,2.53
2018-08-27T02:04:49.000Z,2.10
2018-08-27T02:07:17.076Z,2.10
2018-08-27T02:09:45.187Z,2.70
2018-08-27T02:12:13.482Z,2.27
2018-08-27T02:14:41.545Z,2.77
2018-08-27T02:17:09.591Z,2.20
2018-08-27T02:19:37.680Z,2.40
2018-08-27T02:22:05.965Z,2.10
2018-08-27T02:24:34.033Z,2.33
2018-08-27T02:27:02.098Z,2.17
2018-08-27T02:29:30.254Z,2.20
2018-08-27T02:31:58.313Z,2.10
2018-08-27T02:34:26.420Z,2.23
2018-08-27T02:36:54.481Z,2.10
2018-08-27T02:39:22.686Z,2.40
2018-08-27T02:41:50.873Z,2.03
2018-08-27T02:44:18.942Z,2.23
2018-08-27T02:46:46.997Z,2.37
2018-08-27T02:49:15.069Z,2.77
2018-08-27T02:51:43.322Z,2.60
2018-08-27T02:54:11.419Z,2.30
2018-08-27T02:56:39.475Z,2.10
2018-08-27T02:59:07.657Z,2.40
2018-08-27T03:01:35.725Z,2.67
2018-08-27T03:04:03.891Z,2.60
2018-08-27T03:06:32.093Z,2.10
2018-08-27T03:09:00.277Z,2.13
2018-08-27T03:11:28.424Z,2.43
2018-08-27T03:13:56.489Z,2.00
2018-08-27T03:16:24.556Z,2.03
2018-08-27T03:18:52.728Z,1.93
2018-08-27T03:21:20.772Z,2.43
2018-08-27T03:23:48.848Z,2.70
2018-08-27T03:26:16.987Z,2.03
2018-08-27T03:28:45.233Z,2.40
2018-08-27T03:31:13.326Z,2.17
2018-08-27T03:33:41.366Z,2.30
2018-08-27T03:36:09.433Z,1.93
2018-08-27T03:38:37.524Z,2.33
2018-08-27T03:41:05.597Z,3.10
2018-08-27T03:43:33.633Z,2.20
2018-08-27T03:46:01.700Z,2.13
2018-08-27T03:48:29.884Z,2.20
2018-08-27T03:50:58.054Z,1.93
2018-08-27T03:53:26.088Z,1.97
2018-08-27T03:55:54.362Z,2.00
2018-08-27T03:58:22.620Z,2.03
2018-08-27T04:00:50.705Z,1.97
2018-08-27T04:03:18.747Z,2.00
2018-08-27T04:05:46.872Z,2.30
2018-08-27T04:08:14.920Z,1.87
2018-08-27T04:10:43.040Z,2.03
2018-08-27T04:13:11.104Z,2.30
2018-08-27T04:15:39.162Z,1.57
2018-08-27T04:18:07.243Z,2.17
2018-08-27T04:20:35.293Z,2.00
2018-08-27T04:23:03.357Z,2.20
2018-08-27T04:25:31.508Z,2.40
2018-08-27T04:27:59.626Z,1.97
2018-08-27T04:30:27.676Z,1.40
2018-08-27T04:32:55.792Z,1.90
2018-08-27T04:35:23.855Z,1.97
2018-08-27T04:37:51.901Z,1.30
2018-08-27T04:40:19.965Z,1.50
2018-08-27T04:42:48.054Z,2.20
2018-08-27T04:45:16.116Z,2.00
2018-08-27T04:47:44.188Z,1.80
2018-08-27T04:50:12.272Z,1.90
2018-08-27T04:52:40.327Z,2.13
2018-08-27T04:55:09.638Z,2.00
2018-08-27T04:57:37.885Z,1.70
2018-08-27T05:00:14.922Z,2.00
2018-08-27T05:02:42.972Z,2.60
2018-08-27T05:05:11.061Z,3.03
2018-08-27T05:07:39.125Z,2.33
2018-08-27T05:10:07.213Z,3.40
2018-08-27T05:12:35.275Z,4.30
2018-08-27T05:15:03.538Z,3.90
2018-08-27T05:17:31.822Z,3.20
2018-08-27T05:19:59.868Z,3.40
2018-08-27T05:22:28.034Z,4.10
2018-08-27T05:24:56.136Z,3.00
2018-08-27T05:27:24.198Z,3.20
2018-08-27T05:29:52.475Z,3.43
2018-08-27T05:32:20.793Z,3.07
2018-08-27T05:34:48.849Z,2.70
2018-08-27T05:37:17.108Z,2.30
2018-08-27T05:39:45.270Z,2.30
2018-08-27T05:42:13.364Z,2.30
2018-08-27T05:44:41.456Z,1.90
2018-08-27T05:47:09.533Z,1.70
2018-08-27T05:49:37.704Z,1.93
2018-08-27T05:52:05.953Z,4.67
2018-08-27T05:54:34.141Z,2.03
2018-08-27T05:57:02.237Z,2.40
2018-08-27T05:59:30.332Z,1.87
2018-08-27T06:01:58.403Z,2.50
2018-08-27T06:04:26.660Z,2.07
2018-08-27T06:06:54.952Z,1.87
2018-08-27T06:09:23.011Z,1.70
2018-08-27T06:11:51.282Z,1.80
2018-08-27T06:14:19.348Z,1.70
2018-08-27T06:16:47.721Z,1.80
2018-08-27T06:19:15.983Z,1.73
2018-08-27T06:21:44.079Z,2.10
2018-08-27T06:24:12.276Z,2.17
2018-08-27T06:26:40.349Z,2.23
2018-08-27T06:29:08.533Z,2.10
2018-08-27T06:31:36.588Z,1.93
2018-08-27T06:34:04.680Z,2.10
2018-08-27T06:36:32.960Z,1.63
2018-08-27T06:39:02.985Z,1.60
2018-08-27T06:41:31.064Z,1.63
2018-08-27T06:43:59.156Z,1.57
2018-08-27T06:46:27.361Z,1.50
2018-08-27T06:48:55.433Z,1.60
2018-08-27T06:51:23.502Z,1.80
2018-08-27T06:53:51.573Z,1.70
2018-08-27T06:56:19.680Z,1.30
2018-08-27T06:58:48.097Z,1.60
2018-08-27T07:01:16.176Z,1.30
2018-08-27T07:03:44.233Z,1.73
2018-08-27T07:06:12.377Z,1.63
2018-08-27T07:08:40.492Z,1.70
2018-08-27T07:11:08.598Z,1.70
2018-08-27T07:13:36.648Z,1.70
2018-08-27T07:16:04.830Z,1.67
2018-08-27T07:18:32.907Z,1.73
2018-08-27T07:21:00.984Z,1.73
2018-08-27T07:23:29.049Z,1.40
2018-08-27T07:25:57.423Z,1.50
2018-08-27T07:28:25.638Z,1.67
2018-08-27T07:30:53.705Z,1.53
2018-08-27T07:33:21.801Z,1.23
2018-08-27T07:35:49.857Z,1.40
2018-08-27T07:38:18.017Z,1.57
2018-08-27T07:40:46.085Z,1.70
2018-08-27T07:43:14.179Z,1.60
2018-08-27T07:45:42.371Z,1.80
2018-08-27T07:48:10.543Z,1.53
2018-08-27T07:50:38.619Z,1.40
2018-08-27T07:53:06.993Z,1.60
2018-08-27T07:55:35.064Z,1.33
2018-08-27T07:58:03.171Z,1.53
2018-08-27T08:00:31.513Z,1.57
2018-08-27T08:02:59.660Z,1.70
2018-08-27T08:05:27.722Z,1.80
2018-08-27T08:07:55.838Z,1.80
2018-08-27T08:10:23.909Z,1.60
2018-08-27T08:12:52.476Z,1.60
2018-08-27T08:15:21.458Z,1.30
2018-08-27T08:17:49.680Z,1.73
2018-08-27T08:20:17.878Z,1.47
2018-08-27T08:22:46.414Z,1.60
2018-08-27T08:25:14.773Z,1.80
2018-08-27T08:27:42.940Z,2.00
2018-08-27T08:30:11.031Z,1.67
2018-08-27T08:32:39.099Z,1.50
2018-08-27T08:35:07.556Z,1.90
2018-08-27T08:37:35.819Z,1.73
2018-08-27T08:40:03.950Z,1.50
2018-08-27T08:42:32.192Z,1.87
2018-08-27T08:45:00.266Z,1.90
2018-08-27T08:47:28.378Z,1.60
2018-08-27T08:49:56.453Z,1.80
2018-08-27T08:52:24.588Z,1.73
2018-08-27T08:54:52.645Z,1.57
2018-08-27T08:57:20.736Z,1.43
2018-08-27T08:59:48.801Z,1.70
2018-08-27T09:02:16.832Z,1.67
2018-08-27T09:04:44.896Z,1.40
2018-08-27T09:07:13.217Z,1.97
2018-08-27T09:09:41.544Z,1.50
2018-08-27T09:12:09.621Z,1.80
2018-08-27T09:14:37.719Z,1.67
2018-08-27T09:17:05.778Z,1.50
2018-08-27T09:19:34.045Z,1.97
2018-08-27T09:22:02.153Z,1.57
2018-08-27T09:24:30.295Z,1.90
2018-08-27T09:26:58.558Z,2.50
2018-08-27T09:29:26.620Z,1.83
2018-08-27T09:31:54.709Z,2.20
2018-08-27T09:34:22.815Z,2.50
2018-08-27T09:36:50.885Z,2.07
2018-08-27T09:39:19.259Z,1.60
2018-08-27T09:41:47.336Z,1.80
2018-08-27T09:44:15.405Z,2.00
2018-08-27T09:46:43.568Z,2.07
2018-08-27T09:49:11.781Z,2.20
2018-08-27T09:51:39.914Z,1.87
2018-08-27T09:54:08.103Z,2.13
2018-08-27T09:56:36.374Z,2.20
2018-08-27T09:59:04.489Z,2.23
2018-08-27T10:01:37.913Z,1.90
2018-08-27T10:04:06.424Z,2.37
2018-08-27T10:06:35.708Z,2.33
2018-08-27T10:09:04.551Z,2.00
2018-08-27T10:11:32.840Z,2.33
2018-08-27T10:14:00.953Z,2.40
2018-08-27T10:16:29.104Z,2.20
2018-08-27T10:18:57.173Z,1.57
2018-08-27T10:21:25.253Z,2.40
2018-08-27T10:23:53.347Z,2.03
2018-08-27T10:26:21.419Z,1.90
2018-08-27T10:28:49.685Z,2.40
2018-08-27T10:31:17.769Z,1.83
2018-08-27T10:33:45.820Z,2.17
2018-08-27T10:36:13.940Z,2.10
2018-08-27T10:38:42.025Z,2.30
2018-08-27T10:41:10.139Z,3.30
2018-08-27T10:43:38.196Z,2.33
2018-08-27T10:46:06.301Z,2.40
2018-08-27T10:48:34.378Z,2.20
2018-08-27T10:51:02.456Z,2.20
2018-08-27T10:53:30.504Z,2.53
2018-08-27T10:55:58.572Z,2.00
2018-08-27T10:58:26.719Z,1.80
2018-08-27T11:00:54.961Z,2.70
2018-08-27T11:03:23.037Z,2.53
2018-08-27T11:05:51.466Z,2.17
2018-08-27T11:08:19.612Z,2.40
2018-08-27T11:10:47.753Z,1.97
2018-08-27T11:13:15.998Z,1.70
2018-08-27T11:15:44.257Z,1.60
2018-08-27T11:18:12.348Z,2.33
2018-08-27T11:20:41.132Z,2.00
2018-08-27T11:23:09.220Z,2.10
2018-08-27T11:25:37.330Z,2.10
2018-08-27T11:28:05.896Z,2.17
2018-08-27T11:30:34.258Z,1.70
2018-08-27T11:33:02.430Z,2.03
2018-08-27T11:35:30.640Z,1.90
2018-08-27T11:37:58.710Z,1.90
2018-08-27T11:40:26.897Z,2.60
2018-08-27T11:42:54.980Z,1.63
2018-08-27T11:45:23.257Z,1.93
2018-08-27T11:47:51.339Z,1.70
2018-08-27T11:50:19.421Z,1.70
2018-08-27T11:52:47.674Z,2.07
2018-08-27T11:55:15.749Z,1.50
2018-08-27T11:57:43.890Z,1.83
2018-08-27T12:00:17.632Z,2.00
2018-08-27T12:02:45.804Z,1.63
2018-08-27T12:05:14.197Z,1.90
2018-08-27T12:07:42.270Z,1.30
2018-08-27T12:10:10.321Z,2.00
2018-08-27T12:12:38.389Z,1.70
2018-08-27T12:15:06.476Z,1.53
2018-08-27T12:17:34.564Z,1.60
2018-08-27T12:20:02.838Z,1.77
2018-08-27T12:22:30.893Z,1.60
2018-08-27T12:24:58.959Z,1.60
2018-08-27T12:27:27.292Z,1.70
2018-08-27T12:29:55.352Z,1.63
2018-08-27T12:32:23.445Z,1.53
2018-08-27T12:34:51.502Z,1.83
2018-08-27T12:37:19.558Z,2.00
2018-08-27T12:39:47.647Z,1.53
2018-08-27T12:42:16.077Z,1.77
2018-08-27T12:44:44.211Z,1.73
2018-08-27T12:47:12.360Z,1.60
2018-08-27T12:49:40.482Z,1.40
2018-08-27T12:52:08.654Z,1.90
2018-08-27T12:54:36.965Z,1.43
2018-08-27T12:57:05.151Z,1.40
2018-08-27T12:59:33.273Z,1.53
2018-08-27T13:02:01.414Z,1.60
2018-08-27T13:04:29.573Z,1.60
2018-08-27T13:06:57.667Z,1.20
2018-08-27T13:09:25.763Z,1.50
2018-08-27T13:11:53.991Z,1.40
2018-08-27T13:14:22.359Z,1.37
2018-08-27T13:16:50.449Z,1.53
2018-08-27T13:19:18.591Z,1.50
2018-08-27T13:21:46.738Z,1.63
2018-08-27T13:24:14.871Z,1.30
2018-08-27T13:26:43.126Z,1.30
2018-08-27T13:29:11.185Z,1.43
2018-08-27T13:31:39.412Z,1.90
2018-08-27T13:34:07.585Z,1.77
2018-08-27T13:36:35.661Z,1.60
2018-08-27T13:39:04.730Z,1.67
2018-08-27T13:41:32.916Z,1.43
2018-08-27T13:44:01.084Z,1.70
2018-08-27T13:46:29.165Z,1.30
2018-08-27T13:48:57.313Z,1.73
2018-08-27T13:51:30.917Z,1.70
2018-08-27T13:53:59.033Z,1.60
2018-08-27T13:56:27.131Z,1.00
2018-08-27T13:58:55.401Z,1.20
2018-08-27T14:01:23.482Z,1.47
2018-08-27T14:03:51.633Z,1.83
2018-08-27T14:06:19.774Z,1.90
2018-08-27T14:08:48.101Z,1.57
2018-08-27T14:11:16.241Z,1.70
2018-08-27T14:13:44.446Z,1.40
2018-08-27T14:16:12.484Z,1.40
2018-08-27T14:18:40.672Z,1.40
2018-08-27T14:21:08.758Z,1.60
2018-08-27T14:23:36.826Z,1.47
2018-08-27T14:26:05.267Z,1.60
2018-08-27T14:28:33.499Z,1.53
2018-08-27T14:31:01.756Z,1.40
2018-08-27T14:33:29.934Z,1.60
2018-08-27T14:35:58.013Z,1.60
2018-08-27T14:38:26.152Z,1.60
2018-08-27T14:40:54.285Z,1.80
2018-08-27T14:43:22.473Z,1.43
2018-08-27T14:45:50.612Z,1.60
2018-08-27T14:48:18.826Z,1.33
2018-08-27T14:50:47.036Z,1.50
2018-08-27T14:53:15.096Z,1.40
2018-08-27T14:55:43.168Z,1.50
2018-08-27T14:58:11.273Z,1.53
2018-08-27T15:00:39.510Z,1.77
2018-08-27T15:03:07.570Z,1.83
2018-08-27T15:05:35.664Z,1.37
2018-08-27T15:08:03.741Z,1.90
2018-08-27T15:10:31.836Z,1.40
2018-08-27T15:13:00.020Z,1.77
2018-08-27T15:15:28.081Z,1.63
2018-08-27T15:17:56.197Z,1.50
2018-08-27T15:20:24.300Z,1.80
2018-08-27T15:22:52.773Z,1.80
2018-08-27T15:25:20.942Z,1.70
2018-08-27T15:27:49.425Z,2.03
2018-08-27T15:30:17.657Z,1.70
2018-08-27T15:32:45.994Z,1.93
2018-08-27T15:35:14.327Z,1.97
2018-08-27T15:37:42.425Z,2.10
2018-08-27T15:40:10.497Z,1.80
2018-08-27T15:42:38.584Z,1.83
2018-08-27T15:45:06.874Z,1.80
2018-08-27T15:47:36.193Z,1.70
2018-08-27T15:50:04.590Z,2.17
2018-08-27T15:52:32.857Z,1.80
2018-08-27T15:55:01.049Z,1.70
2018-08-27T15:57:29.379Z,1.80
2018-08-27T15:59:57.493Z,1.60
2018-08-27T16:02:25.770Z,1.90
2018-08-27T16:04:53.918Z,2.17
2018-08-27T16:07:22.401Z,1.90
2018-08-27T16:09:50.845Z,1.83
2018-08-27T16:12:18.917Z,1.90
2018-08-27T16:14:47.030Z,2.00
2018-08-27T16:17:15.138Z,1.60
2018-08-27T16:19:43.291Z,2.13
2018-08-27T16:22:12.017Z,2.40
2018-08-27T16:24:40.309Z,2.30
2018-08-27T16:27:08.475Z,2.00
2018-08-27T16:29:37.238Z,2.53
2018-08-27T16:32:05.416Z,1.80
2018-08-27T16:34:33.655Z,1.60
2018-08-27T16:37:01.811Z,1.97
2018-08-27T16:39:30.036Z,2.17
2018-08-27T16:41:58.345Z,2.00
2018-08-27T16:44:26.510Z,1.50
2018-08-27T16:46:54.730Z,2.20
2018-08-27T16:49:22.858Z,1.83
2018-08-27T16:51:50.950Z,1.73
2018-08-27T16:54:19.042Z,1.70
2018-08-27T16:56:47.614Z,1.70
2018-08-27T16:59:15.725Z,1.83
2018-08-27T17:01:43.855Z,1.37
2018-08-27T17:04:12.265Z,1.57
2018-08-27T17:06:40.402Z,1.83
2018-08-27T17:09:08.562Z,1.63
2018-08-27T17:11:36.698Z,1.60
2018-08-27T17:14:04.795Z,1.60
2018-08-27T17:16:32.937Z,1.43
2018-08-27T17:19:01.030Z,1.70
2018-08-27T17:21:29.118Z,1.23
2018-08-27T17:23:57.392Z,1.20
2018-08-27T17:26:25.539Z,1.60
2018-08-27T17:28:53.705Z,1.77
2018-08-27T17:31:21.768Z,1.57
2018-08-27T17:33:49.893Z,1.43
2018-08-27T17:36:18.047Z,1.60
2018-08-27T17:38:46.165Z,1.63
2018-08-27T17:41:14.297Z,1.63
2018-08-27T17:43:42.525Z,1.70
2018-08-27T17:46:10.617Z,1.73
2018-08-27T17:48:38.836Z,1.60
2018-08-27T17:51:06.917Z,1.80
2018-08-27T17:53:35.062Z,1.70
2018-08-27T17:56:03.193Z,1.50
2018-08-27T17:58:31.515Z,1.53
2018-08-27T18:00:59.797Z,1.83
2018-08-27T18:03:28.122Z,2.07
2018-08-27T18:05:56.535Z,2.00
2018-08-27T18:08:25.016Z,2.30
2018-08-27T18:10:53.257Z,1.80
2018-08-27T18:13:21.429Z,1.80
2018-08-27T18:15:49.951Z,1.87
2018-08-27T18:18:18.514Z,1.80
2018-08-27T18:20:46.856Z,1.70
2018-08-27T18:23:15.296Z,1.93
2018-08-27T18:25:43.758Z,1.70
2018-08-27T18:28:11.869Z,2.87
2018-08-27T18:30:40.097Z,3.40
2018-08-27T18:33:08.236Z,3.40
2018-08-27T18:35:36.793Z,3.23
2018-08-27T18:38:05.084Z,2.60
2018-08-27T18:40:33.145Z,2.40
2018-08-27T18:43:01.614Z,1.97
2018-08-27T18:45:30.148Z,2.10
2018-08-27T18:47:58.472Z,2.30
2018-08-27T18:50:26.964Z,1.90
2018-08-27T18:52:55.125Z,2.20
2018-08-27T18:55:23.341Z,1.87
2018-08-27T18:57:52.073Z,1.63
2018-08-27T19:00:20.690Z,2.20
2018-08-27T19:02:49.225Z,2.03
2018-08-27T19:05:17.905Z,2.80
2018-08-27T19:07:46.632Z,2.50
2018-08-27T19:10:15.192Z,2.07
2018-08-27T19:12:43.827Z,3.80
2018-08-27T19:15:12.380Z,2.43
2018-08-27T19:17:40.935Z,1.80
2018-08-27T19:20:09.660Z,1.97
2018-08-27T19:22:38.260Z,2.00
2018-08-27T19:25:06.746Z,2.00
2018-08-27T19:27:35.329Z,2.40
2018-08-27T19:30:03.912Z,2.00
2018-08-27T19:32:32.377Z,2.30
2018-08-27T19:35:00.980Z,2.00
2018-08-27T19:37:29.464Z,1.90
2018-08-27T19:39:57.950Z,2.13
2018-08-27T19:42:26.638Z,2.20
2018-08-27T19:44:55.423Z,2.33
2018-08-27T19:47:23.904Z,2.30
2018-08-27T19:49:52.038Z,2.03
2018-08-27T19:52:20.154Z,1.90
2018-08-27T19:54:48.293Z,2.20
2018-08-27T19:57:16.422Z,2.20
2018-08-27T19:59:44.495Z,2.50
2018-08-27T20:02:12.614Z,2.30
2018-08-27T20:04:40.720Z,2.40
2018-08-27T20:07:08.906Z,2.20
2018-08-27T20:09:36.988Z,2.27
2018-08-27T20:12:05.460Z,2.50
2018-08-27T20:14:33.649Z,2.57
2018-08-27T20:17:01.853Z,2.20
2018-08-27T20:19:29.959Z,2.10
2018-08-27T20:21:58.058Z,2.43
2018-08-27T20:24:26.198Z,2.40
2018-08-27T20:26:54.370Z,3.00
2018-08-27T20:29:22.553Z,3.20
2018-08-27T20:31:50.765Z,2.50
2018-08-27T20:34:18.853Z,2.60
2018-08-27T20:36:46.905Z,2.90
2018-08-27T20:39:15.003Z,2.53
2018-08-27T20:41:43.273Z,3.10
2018-08-27T20:44:11.350Z,2.10
2018-08-27T20:46:39.493Z,2.40
2018-08-27T20:49:07.961Z,2.30
2018-08-27T20:51:36.054Z,3.30
2018-08-27T20:54:04.117Z,2.50
2018-08-27T20:56:32.277Z,2.13
2018-08-27T20:59:00.341Z,2.60
2018-08-27T21:01:28.490Z,2.43
2018-08-27T21:03:56.599Z,2.50
2018-08-27T21:06:24.753Z,2.57
2018-08-27T21:08:52.890Z,2.40
2018-08-27T21:11:21.036Z,2.20
2018-08-27T21:13:49.181Z,2.50
2018-08-27T21:16:17.293Z,2.70
2018-08-27T21:18:45.393Z,2.70
2018-08-27T21:21:13.513Z,2.73
2018-08-27T21:23:41.732Z,2.83
2018-08-27T21:26:09.841Z,2.33
2018-08-27T21:28:37.927Z,2.70
2018-08-27T21:31:06.038Z,2.43
2018-08-27T21:33:34.127Z,3.80
2018-08-27T21:36:02.309Z,4.20
2018-08-27T21:38:30.473Z,3.60
2018-08-27T21:40:58.572Z,3.13
2018-08-27T21:43:26.650Z,2.33
2018-08-27T21:45:54.748Z,2.53
2018-08-27T21:48:22.834Z,2.03
2018-08-27T21:50:50.945Z,2.60
2018-08-27T21:53:19.161Z,2.37
2018-08-27T21:55:47.262Z,2.77
2018-08-27T21:58:15.356Z,2.40
2018-08-27T22:00:48.749Z,2.77
2018-08-27T22:03:22.398Z,2.33
2018-08-27T22:05:50.461Z,2.97
2018-08-27T22:08:18.565Z,2.33
2018-08-27T22:10:46.736Z,2.60
2018-08-27T22:13:14.909Z,2.30
2018-08-27T22:15:42.976Z,2.73
2018-08-27T22:18:11.144Z,2.83
2018-08-27T22:20:39.214Z,2.57
2018-08-27T22:23:07.672Z,2.70
2018-08-27T22:25:35.797Z,2.37
2018-08-27T22:28:03.898Z,3.07
2018-08-27T22:30:32.018Z,3.17
2018-08-27T22:33:00.205Z,2.43
2018-08-27T22:35:28.359Z,2.77
2018-08-27T22:37:56.432Z,2.27
2018-08-27T22:40:24.678Z,2.70
2018-08-27T22:42:52.817Z,2.63
2018-08-27T22:45:20.907Z,2.80
2018-08-27T22:47:48.969Z,2.50
2018-08-27T22:50:17.086Z,2.30
2018-08-27T22:52:45.193Z,2.30
2018-08-27T22:55:13.248Z,2.53
2018-08-27T22:57:41.440Z,2.63
2018-08-27T23:00:09.541Z,2.90
2018-08-27T23:02:42.962Z,2.97
2018-08-27T23:05:12.609Z,2.60
2018-08-27T23:07:41.116Z,2.53
2018-08-27T23:10:09.854Z,2.50
2018-08-27T23:12:37.982Z,2.50
2018-08-27T23:15:06.162Z,2.63
2018-08-27T23:17:34.225Z,2.60
2018-08-27T23:20:02.327Z,2.43
2018-08-27T23:22:30.529Z,2.10
2018-08-27T23:24:58.592Z,2.63
2018-08-27T23:27:26.724Z,2.73
2018-08-27T23:29:55.009Z,2.63
2018-08-27T23:32:23.082Z,2.77
2018-08-27T23:34:51.228Z,2.90
2018-08-27T23:37:19.370Z,3.03
2018-08-27T23:39:47.486Z,2.80
2018-08-27T23:42:15.773Z,2.60
2018-08-27T23:44:43.834Z,2.40
2018-08-27T23:47:11.934Z,2.70
2018-08-27T23:49:40.069Z,3.00
2018-08-27T23:52:08.206Z,2.77
2018-08-27T23:54:36.320Z,2.87
2018-08-27T23:57:04.948Z,2.77
2018-08-27T23:59:33.256Z,2.97
